Rosemead, CA (91772)

3:36 AM PDT on October 01, 2014 (GMT -0700)
Rosemead Gardens | Change Station
CLOSE
Current Station
Personal Weather Station
Location: Rosemead, CA
Elevation: 341 ft
Nearby Weather Stations

Elev 341 ft 34.09 °N, 118.07 °W | Updated 6 minutes ago

Clear
Clear
61.3 °F
Feels Like 61.3 °F
N
0.0
Wind Variable Wind from WSW
Gusts 0.0 mph

Today
High -- | Low -- °F
--% Chance of Precip.
Yesterday
High -- | Low -- °F
Precip. -- in
6:46 AM 6:36 PM
Waxing Crescent, 46% visible
Pressure 29.76 in
Visibility 10.0 miles
Clouds Clear
Dew Point 56 °F
Humidity 84%
Rainfall 0.00 in
Snow Depth 1 in , 1 in , 1 in
UV 0 out of 12
Pollen 5.30 out of 12
Ozone Good
Flu Activity Not available.
METAR KCQT 010947Z AUTO 00000KT 10SM CLR 18/16 A2976 RMK AO2 SLP076 T01830156

More Conditions Fewer Conditions

Pressure 29.76 in
Visibility 10.0 miles
Clouds Clear
Dew Point 56 °F
Humidity 84%
Rainfall 0.00 in
Snow Depth 1 in , 1 in , 1 in
UV 0 out of 12
Pollen 5.30 out of 12
Ozone Good
Flu Activity Not available.
METAR KCQT 010947Z AUTO 00000KT 10SM CLR 18/16 A2976 RMK AO2 SLP076 T01830156

More Conditions Fewer Conditions

10-Day Weather Forecast

Almanac

Astronomy

Oct. 01, 2014 Rise Set
Actual Time 6:46 AM PDT 6:36 PM PDT
Civil Twilight 6:21 AM PDT 7:01 PM PDT
Nautical Twilight 5:52 AM PDT 7:30 PM PDT
Astronomical Twilight 5:23 AM PDT 7:59 PM PDT
Moon 1:40 PM PDT No Moon Set
Length of Visible Light 12h 39m
Length of Day
11h 49m
Tomorrow will be 2m 5s shorter.
Waxing Crescent, 46% of the Moon is Illuminated
Today
Waxing Crescent
Oct 1
First Quarter
Oct 8
Full
Oct 15
Last Quarter
Oct 23
New

Today's Extremes

State Highs State Lows

Community

WunderPhotos

Upload Photos

1,757,905 photos uploaded!

WunderBlogs® & News

Nearby

Air Quality

  Air Quality AQ Index Pollutant
Yesterday Good
OZONE
Current Good
OZONE
Wednesday Good
PM10
Wednesday Good
OZONE
Wednesday Good
CO
Wednesday Good
NO2

Snow Depth

Station Depth Elevation
Ebbetts Pass 1 in 8700 ft
Leavitt Lake 1 in 9400 ft
Burnside Lake 1 in 8139 ft
Independence Camp 0 in 7000 ft
Heavenly Valley 0 in 8850 ft

Earthquake Activity

City Distance Mag. Time & Date
Avalon, California 69 miles 2.6 1:28 PM PDT
2014-09-30
Minimum magnitude displayed is 2.5.

Coastal Water Temperatures

Place Temperature
Santa Monica Pier 69.1 °F
Los Angeles, CA 66.9 °F
La Jolla, CA 68.0 °F

Nearby Weather Stations